Weather observations for the past three days for
Watonga, Watonga Airport
Imperial (Metric)
Date Time (cdt) Wind (mph) Vis. (mi.) Weather Sky Cond. Temperature (ºF) Relative Humidity Wind Chill (°F) Heat Index (°F) Pressure Precipitation (in)
Air Dwpt 6 hour altimeter (in) sea level (mb) 1 hr 3 hr 6 hr
Max. Min.
07 17:35 SW 12 10.00 Fair CLR 77.4 35.1 22% 77 29.94 0.0
07 17:15 W 9 10.00 Fair CLR 77.5 34.5 21% 77 29.94 0.0
07 16:55 NW 8 10.00 Fair CLR 77.5 35.1 21% 77 29.95 0.0
07 16:35 W 12 G 16 10.00 Fair CLR 75.7 35.6 23% 77 29.96 0.0
07 16:15 W 9 G 21 10.00 Fair CLR 76.3 36.5 24% 77 29.97 0.0
07 15:55 S 6 10.00 Fair CLR 75.4 35.8 24% 77 29.98 0.0
07 15:35 SW 9 G 23 10.00 Fair CLR 75.4 35.2 23% 76 29.99 0.0
07 15:15 W 12 G 17 10.00 Fair CLR 75.7 33.8 22% 76 30 0.0
07 14:55 W 7 10.00 Fair CLR 74.3 34.3 23% 30.01 0.0
07 14:35 W 9 10.00 Fair CLR 74.7 35.2 24% 30.02 0.0
07 14:15 SW 8 G 16 10.00 Fair CLR 72.5 35.6 26% 30.03 0.0
07 13:55 SW 12 G 17 10.00 Fair CLR 71.1 33.4 25% 30.04 0.0
07 13:35 SW 10 G 20 10.00 Fair CLR 71.1 34.3 26% 30.05 0.0
07 13:15 SW 15 G 22 10.00 Fair CLR 69.6 34.7 28% 30.06 0.0
07 12:55 W 12 10.00 Fair CLR 69.1 34.3 69.4 39.4 28% 30.07 0.0
07 12:35 SW 12 G 21 10.00 Fair CLR 68.2 36 31% 30.08 0.0
07 12:15 W 10 10.00 Fair CLR 66.4 36 33% 30.09 0.0
07 11:55 SW 15 10.00 Fair CLR 65.7 38.7 37% 30.1 0.0
07 11:35 SW 15 10.00 Fair CLR 63.7 38.8 40% 30.12 0.0
07 11:15 SW 12 G 18 10.00 Fair CLR 62.6 38.8 42% 30.12 0.0
07 10:55 W 10 10.00 Fair CLR 62.4 38.7 42% 30.13 0.0
07 10:35 SW 9 10.00 Fair CLR 60.4 38.5 44% 30.13 0.0
07 10:15 SW 9 10.00 Fair CLR 60.3 38.3 44% 30.14 0.0
07 09:55 SW 8 G 16 10.00 Fair CLR 58.8 38.3 47% 30.15 0.0
07 09:35 SW 6 10.00 Fair CLR 57.6 38.7 50% 30.15 0.0
07 09:15 W 6 10.00 Fair CLR 55.9 39.9 55% 30.16 0.0
07 08:55 SW 6 10.00 Fair CLR 54.3 40.8 60% 30.16 0.0
07 08:35 W 7 10.00 Fair CLR 52.9 41.2 65% 30.17 0.0
07 08:15 W 6 10.00 Fair CLR 50.2 41.2 71% 30.17 0.0
07 07:55 W 6 10.00 Fair CLR 47.7 39.7 74% 45 30.16 0.0
07 07:35 W 5 10.00 Fair CLR 45.1 39.6 81% 43 30.16 0.0
07 07:15 SW 3 10.00 Fair CLR 42.1 38.1 86% 30.15 0.0
07 06:55 SW 5 10.00 Fair CLR 40.1 36.3 51.1 39.7 86% 37 30.15 0.0
07 06:35 SW 3 10.00 Fair CLR 41.2 36.3 83% 30.14 0.0
07 06:15 Calm 10.00 Mostly Cloudy BKN050 43.7 38.1 81% 30.14 0.0
07 05:55 NW 5 10.00 Overcast OVC050 45.5 38.3 76% 44 30.14 0.0
07 05:35 W 6 10.00 Overcast OVC050 45.5 38.1 76% 43 30.14 0.0
07 05:15 NW 3 10.00 Overcast OVC050 47.7 38.5 71% 30.14 0.0
07 04:55 NW 5 10.00 Overcast OVC060 48.7 37.9 66% 47 30.14 0.0
07 04:35 NW 5 10.00 Overcast OVC060 47.5 37.9 70% 46 30.15 0.0
07 04:15 NW 3 10.00 Mostly Cloudy BKN060 45.3 36.7 72% 30.14 0.0
07 03:55 NW 5 10.00 Partly Cloudy SCT060 47.3 36.3 66% 46 30.14 0.0
07 03:35 NW 6 10.00 Fair CLR 48.4 36.5 64% 46 30.14 0.0
07 03:15 NW 3 10.00 Partly Cloudy SCT110 50.7 36.7 59% 30.14 0.0
07 02:55 N 5 10.00 Fair CLR 50.5 36.5 59% 30.14 0.0
07 02:35 NW 5 10.00 Partly Cloudy SCT120 49.1 37.8 65% 48 30.15 0.0
07 02:15 NW 6 10.00 Mostly Cloudy BKN110 49.1 39.4 69% 47 30.15 0.0
07 01:55 W 5 10.00 Overcast OVC100 49.6 39.4 68% 48 30.16 0.0
07 01:35 Calm 10.00 Overcast OVC100 48.9 38.5 67% 30.15 0.0
07 01:15 Calm 10.00 Overcast OVC100 50.2 37.2 61% 30.15 0.0
07 00:55 Calm 10.00 Mostly Cloudy BKN110 49.6 37 62.1 48 62% 30.14 0.0
07 00:35 N 3 10.00 Partly Cloudy SCT065 50.7 36.7 59% 30.15 0.0
07 00:15 N 7 10.00 Overcast OVC065 53.6 36.7 53% 30.15 0.0
06 23:55 NW 3 10.00 Overcast OVC065 54 36.9 53% 30.16 0.0
06 23:35 N 7 10.00 Overcast OVC065 52.7 37.8 57% 30.15 0.0
06 23:15 NW 3 10.00 Overcast OVC065 51.8 37.4 58% 30.16 0.0
06 22:55 W 5 10.00 Overcast OVC065 50 37.6 63% 49 30.15 0.0
06 22:35 NW 5 10.00 Mostly Cloudy BKN065 48.6 36.5 63% 47 30.13 0.0
06 22:15 NE 7 10.00 Partly Cloudy SCT065 49.8 36.7 61% 47 30.1 0.0
06 21:55 NE 8 10.00 Overcast OVC065 50.9 36.5 58% 30.1 0.0
06 21:35 NE 6 10.00 Mostly Cloudy BKN065 49.3 36.3 61% 47 30.1 0.0
06 21:15 N 7 10.00 Partly Cloudy SCT065 50.7 35.8 57% 30.1 0.0
06 20:55 NE 8 10.00 Fair CLR 52.9 35.8 52% 30.09 0.0
06 20:35 NE 8 10.00 Partly Cloudy SCT060 55.6 35.6 47% 30.08 0.0
06 20:15 N 13 10.00 Mostly Cloudy BKN060 58.1 35.4 43% 30.08 0.0
06 19:55 NE 15 10.00 Mostly Cloudy BKN070 59.4 35.8 41% 30.07 0.0
06 19:35 NE 14 10.00 Mostly Cloudy BKN070 60.6 36 40% 30.06 0.0
06 19:15 NE 16 10.00 Partly Cloudy SCT060 61.7 35.8 38% 30.06 0.0
06 18:55 NE 16 10.00 Mostly Cloudy BKN060 61.3 35.2 65.5 57.4 38% 30.06 0.0
06 18:35 NE 16 10.00 Overcast OVC060 62.1 34.9 36% 30.06 0.0
06 18:15 NE 14 10.00 Overcast OVC060 64 35.6 35% 30.05 0.0
06 17:55 NE 14 G 20 10.00 Mostly Cloudy BKN060 62.6 35.6 37% 30.05 0.0
06 17:35 NE 8 G 21 10.00 Partly Cloudy SCT060 64.2 36 35% 30.04 0.0
06 17:15 N 14 10.00 Partly Cloudy SCT060 64 36.3 36% 30.04 0.0
06 16:55 N 9 10.00 Partly Cloudy SCT060 64.6 36.3 35% 30.04 0.0
06 16:35 E 10 G 17 10.00 Partly Cloudy SCT055 SCT120 64 36.9 37% 30.04 0.0
06 16:15 NE 9 G 20 10.00 Partly Cloudy SCT120 63.3 36 36% 30.04 0.0
06 15:55 E 13 G 20 10.00 Partly Cloudy SCT120 64 36.9 37% 30.05 0.0
06 15:35 N 18 G 23 10.00 Partly Cloudy SCT050 SCT120 63.5 36 36% 30.05 0.0
06 15:15 NE 17 G 21 10.00 Mostly Cloudy BKN050 BKN120 61.7 35.6 38% 30.06 0.0
06 14:55 E 15 G 23 10.00 Overcast BKN050 OVC110 61.5 36.3 39% 30.07 0.0
06 14:35 E 13 10.00 Overcast BKN048 OVC110 60.1 37 42% 30.07 0.0
06 14:15 NE 12 10.00 Overcast OVC046 60.4 37.4 43% 30.07 0.0
06 13:55 NE 14 G 20 10.00 Overcast OVC044 58.5 36.7 44% 30.08 0.0
06 13:35 NE 10 10.00 Overcast OVC046 58.8 37.4 45% 30.09 0.0
06 13:15 NE 15 10.00 Overcast OVC044 58.3 37.2 46% 30.1 0.0
06 12:55 NE 14 G 21 10.00 Overcast OVC042 57.7 37 61.3 46.8 46% 30.1 0.0
06 12:35 NE 16 10.00 Overcast OVC042 58.5 37 45% 30.1 0.0
06 12:15 E 18 G 22 10.00 Overcast BKN042 OVC120 58.6 36.9 44% 30.09 0.0
06 11:55 NE 17 G 24 10.00 Partly Cloudy SCT040 SCT120 57.7 37 46% 30.1 0.0
06 11:35 E 15 G 22 10.00 Partly Cloudy SCT035 SCT120 57.4 37.4 47% 30.09 0.0
06 11:15 NE 17 G 24 10.00 Fair CLR 57.4 38.1 49% 30.09 0.0
06 10:55 NE 17 10.00 Partly Cloudy SCT033 SCT120 55.8 36.7 49% 30.08 0.0
06 10:35 NE 13 10.00 Partly Cloudy SCT033 SCT120 55 37.6 52% 30.08 0.0
06 10:15 NE 21 10.00 Partly Cloudy and Breezy SCT120 54.7 36.7 51% 30.08 0.0
06 09:55 NE 18 10.00 Partly Cloudy SCT065 SCT120 53.6 36.1 52% 30.08 0.0
06 09:35 NE 18 10.00 Partly Cloudy SCT065 52.3 36 54% 30.09 0.0
06 09:15 NE 18 10.00 Partly Cloudy SCT039 50.9 36.5 58% 30.09 0.0
06 08:55 NE 18 G 24 10.00 Partly Cloudy SCT033 SCT040 49.3 36.9 62% 43 30.08 0.0
06 08:35 NE 17 10.00 Partly Cloudy SCT033 SCT060 48.2 37 65% 42 30.08 0.0
06 08:15 NE 17 10.00 Mostly Cloudy SCT028 BKN060 47.5 37.2 68% 41 30.08 0.0
06 07:55 NE 16 G 21 10.00 Mostly Cloudy SCT030 BKN060 47.3 37.4 69% 41 30.08 0.0
06 07:35 NE 16 10.00 Overcast OVC060 47.3 37.8 70% 41 30.07 0.0
06 07:15 N 18 10.00 Overcast SCT030 OVC050 46.9 38.3 72% 40 30.06 0.0
06 06:55 N 18 10.00 Overcast BKN030 OVC050 46.9 38.7 48.9 46.9 73% 40 30.05 0.0
06 06:35 NE 15 10.00 Overcast SCT032 SCT046 OVC050 46.9 38.8 74% 41 30.05 0.0
06 06:15 NE 17 10.00 Overcast SCT031 SCT035 OVC050 47.1 39.2 74% 41 30.03 0.0
06 05:55 N 15 10.00 Overcast SCT025 SCT030 OVC048 47.8 39.4 73% 42 30.03 0.0
06 05:35 N 14 10.00 Overcast SCT028 OVC048 48.7 40.5 73% 44 30.03 0.0
06 05:15 NE 13 10.00 Overcast OVC050 48.7 40.6 74% 44 30.02 0.0
06 04:55 N 13 10.00 Overcast OVC050 48.9 40.3 72% 44 30.03 0.0
06 04:35 N 13 10.00 Overcast OVC048 48.7 40.5 73% 44 30.02 0.0
06 04:15 N 13 10.00 Overcast OVC046 48.9 40.1 72% 44 30.01 0.0
06 03:55 N 12 10.00 Overcast OVC044 48.2 39.2 71% 44 30 0.0
06 03:35 N 15 10.00 Overcast OVC044 48.9 39.9 71% 44 29.98 0.0
06 03:15 N 9 10.00 Overcast OVC042 48.4 39.6 72% 45 29.99 0.0
06 02:55 N 10 10.00 Overcast OVC042 48.2 39.6 72% 44 30 0.0
06 02:35 N 10 10.00 Overcast OVC042 48.2 39.2 71% 44 30 0.0
06 02:15 N 13 10.00 Overcast OVC040 48.2 39.2 71% 43 29.99 0.0
06 01:55 NE 13 10.00 Overcast OVC040 48.4 38.8 70% 44 29.97 0.0
06 01:35 NE 13 10.00 Overcast OVC040 48.4 38.5 69% 44 29.97 0.0
06 01:15 NE 14 10.00 Overcast OVC040 48.4 38.1 68% 43 29.96 0.0
06 00:55 NE 14 10.00 Overcast OVC040 48.6 37.9 52.2 48.6 67% 44 29.96 0.0
06 00:35 NE 12 10.00 Overcast OVC040 48.2 37.4 66% 44 29.97 0.0
06 00:15 NE 13 10.00 Overcast OVC040 48.9 37.9 66% 44 29.96 0.0
05 23:55 NE 14 10.00 Overcast OVC040 48.9 37.9 66% 44 29.96 0.0
05 23:35 NE 13 10.00 Overcast OVC038 48.9 38.8 68% 44 29.96 0.0
05 23:15 NE 12 10.00 Overcast OVC036 48.9 39.7 71% 45 29.95 0.0
05 22:55 NE 14 10.00 Overcast OVC034 49.1 39.7 70% 44 29.96 0.0
05 22:35 NE 20 10.00 Overcast OVC030 48.9 39.4 70% 43 29.95 0.0
05 22:15 NE 20 G 25 10.00 Overcast OVC030 49.3 39 68% 43 29.94 0.0
05 21:55 NE 20 10.00 Overcast BKN022 OVC028 49.5 41 73% 43 29.93 0.0
05 21:35 NE 18 G 23 10.00 Overcast OVC022 49.6 41.2 73% 44 29.92 0.0
05 21:15 NE 20 10.00 Overcast OVC020 50 41.4 72% 44 29.92 0.0
05 20:55 NE 15 10.00 Overcast OVC024 50.4 41.4 71% 29.92 0.0
05 20:35 NE 15 G 21 10.00 Overcast OVC024 50.7 41 69% 29.92 0.0
05 20:15 NE 20 G 23 10.00 Overcast OVC024 51.1 40.8 68% 29.91 0.0
05 19:55 NE 15 10.00 Overcast OVC026 51.3 40.6 67% 29.91 0.0
05 19:35 N 15 10.00 Overcast OVC026 51.6 40.5 66% 29.9 0.0
05 19:15 NE 17 10.00 Overcast OVC028 51.8 40.3 65% 29.89 0.0
05 18:55 NE 21 10.00 Overcast and Breezy OVC028 52.2 40.5 54.7 49.3 65% 29.88 0.0
05 18:35 NE 16 10.00 Overcast OVC028 52.7 41 65% 29.87 0.0
05 18:15 NE 14 10.00 Overcast OVC028 52.7 40.6 64% 29.87 0.0
05 17:55 NE 18 G 23 10.00 Overcast OVC026 52.9 40.8 64% 29.88 0.0
05 17:35 NE 22 10.00 Overcast and Breezy OVC026 52.9 40.8 64% 29.88 0.0
05 17:15 NE 22 10.00 Overcast and Breezy OVC028 53.2 41.4 64% 29.86 0.0
05 16:55 NE 18 10.00 Overcast OVC028 54 41.2 62% 29.87 0.0
05 16:35 NE 18 G 22 10.00 Overcast OVC026 54 41.4 63% 29.87 0.0
05 16:15 NE 23 10.00 Overcast and Breezy OVC026 54 41.4 63% 29.86 0.0
05 15:55 N 23 G 31 10.00 Overcast and Breezy OVC024 54.1 41.9 63% 29.84 0.0
05 15:35 N 29 G 36 10.00 Overcast and Windy OVC022 53.8 42.3 65% 29.84 0.0
05 15:15 N 25 G 31 10.00 Overcast and Breezy OVC022 53.6 43 67% 29.85 0.0
05 14:55 N 23 G 33 10.00 Overcast and Breezy OVC022 53.2 43.9 71% 29.85 0.0
05 14:35 N 29 G 33 10.00 Overcast and Windy OVC022 52.5 43.9 73% 29.85 0.0
05 14:15 N 24 G 31 10.00 Overcast and Breezy BKN014 OVC020 51.4 44.4 77% 29.86 0.0
05 13:55 N 25 10.00 Overcast and Breezy OVC014 51.1 45 80% 29.85 0.0
05 13:35 N 23 G 30 7.00 Overcast and Breezy OVC012 50 45.9 86% 44 29.86 0.0
05 13:15 N 22 G 29 5.00 Fog/Mist and Breezy OVC014 49.6 46.4 89% 43 29.86 0.0
05 12:55 N 23 G 31 3.50 Fog/Mist and Breezy OVC009 49.6 47.3 62.8 49.5 92% 43 29.85 0.0
05 12:35 N 28 G 35 4.00 Fog/Mist and Windy OVC011 51.1 46.9 86% 29.82 0.0
05 12:15 N 26 G 31 7.00 Overcast and Windy OVC014 52.5 47.1 82% 29.81 0.0
05 11:55 N 31 G 36 10.00 Overcast and Windy OVC016 52.3 45.3 77% 29.81 0.0
05 11:35 N 25 G 33 10.00 Overcast and Breezy OVC016 52.9 44.8 74% 29.81 0.0
05 11:15 N 26 G 35 10.00 Overcast and Windy OVC016 53.6 45 73% 29.79 0.0
05 10:55 N 26 G 36 10.00 Overcast and Windy OVC018 54.3 45.1 71% 29.77 0.0
05 10:35 N 25 G 36 10.00 Overcast and Breezy OVC020 54.9 45.1 70% 29.77 0.0
05 10:15 N 24 G 31 10.00 Overcast and Breezy OVC018 55.8 44.8 67% 29.74 0.0
05 09:55 N 23 G 32 10.00 Overcast and Breezy OVC018 55.8 45.1 68% 29.73 0.0
05 09:35 N 26 G 35 10.00 Overcast and Windy OVC018 55.6 45.1 68% 29.72 0.0
05 09:15 N 26 G 35 10.00 Overcast and Windy OVC018 55.9 46.2 70% 29.72 0.0
05 08:55 N 28 G 32 10.00 Overcast and Windy OVC016 56.5 47.8 73% 29.7 0.0
05 08:35 N 24 G 31 10.00 Overcast and Breezy OVC014 56.7 48.6 74% 29.69 0.0
05 08:15 N 25 G 35 10.00 Overcast and Breezy OVC014 57.2 49.5 76% 29.67 0.0
05 07:55 N 25 G 32 10.00 Overcast and Breezy OVC012 58.5 51.4 78% 29.65 0.0
05 07:35 N 24 G 33 10.00 Overcast and Breezy BKN006 OVC009 62.6 60.1 92% 29.64 0.0
05 07:15 N 20 G 26 10.00 Overcast OVC004 62.6 61.3 96% 29.62 0.0
05 06:55 N 17 G 22 10.00 Partly Cloudy SCT004 62.1 60.6 71.1 60.4 95% 29.6 0.0
05 06:35 N 10 10.00 Fair CLR 62.1 57.9 86% 29.58 0.0
05 06:15 NW 5 10.00 Fair CLR 60.6 56.1 85% 29.57 0.0
05 05:55 NW 5 10.00 Fair CLR 62.8 57.4 83% 29.56 0.0
05 05:35 N 9 10.00 Fair CLR 63.7 56.1 77% 29.56 0.0
05 05:15 W 9 10.00 Fair CLR 65.7 58.8 79% 29.54 0.0
05 04:55 S 8 10.00 Fair CLR 67.1 59.9 78% 29.53 0.0
05 04:35 S 9 10.00 Fair CLR 67.1 60.4 79% 29.52 0.0
05 04:15 S 7 10.00 Fair CLR 67.8 60.8 78% 29.52 0.0
05 03:55 S 10 G 17 10.00 Fair CLR 68.2 61.2 78% 29.52 0.0
05 03:35 S 12 10.00 Fair CLR 68.7 61.3 77% 29.52 0.0
05 03:15 S 9 10.00 Fair CLR 68.7 61.5 78% 29.53 0.0
05 02:55 S 9 10.00 Fair CLR 69.1 61.7 77% 29.53 0.0
05 02:35 S 10 10.00 Fair CLR 69.3 61.7 77% 29.53 0.0
05 02:15 S 13 10.00 Fair CLR 69.8 61.7 76% 29.54 0.0
05 01:55 S 10 10.00 Fair CLR 70.3 61.7 74% 29.54 0.0
05 01:35 S 13 10.00 Fair CLR 70.5 61.9 74% 29.55 0.0
05 01:15 S 13 G 20 10.00 Fair CLR 70.7 61.9 74% 29.55 0.0
05 00:55 S 10 10.00 Fair CLR 71.1 61.7 83.3 70.9 72% 29.56 0.0
05 00:35 S 13 10.00 Fair CLR 71.2 61.9 72% 29.56 0.0
05 00:15 S 9 10.00 Fair CLR 71.6 61.7 71% 29.57 0.0
04 23:55 S 9 10.00 Fair CLR 72.5 61.7 69% 29.58 0.0
04 23:35 S 10 10.00 Fair CLR 72.9 61.5 68% 29.58 0.0
04 23:15 S 10 10.00 Fair CLR 73.6 61.5 66% 29.59 0.0
04 22:55 S 12 10.00 Fair CLR 74.7 61.3 63% 29.59 0.0
04 22:35 S 17 G 22 10.00 Fair CLR 75.6 61.5 62% 78 29.59 0.0
04 22:15 S 16 G 22 10.00 Fair CLR 75.7 61 60% 78 29.58 0.0
04 21:55 S 15 G 26 10.00 Fair CLR 77.5 59.9 55% 79 29.57 0.0
04 21:35 S 17 G 26 10.00 Fair CLR 77.7 59.5 54% 79 29.56 0.0
04 21:15 S 16 G 21 10.00 Fair CLR 78.1 59.4 53% 79 29.56 0.0
04 20:55 S 14 G 18 10.00 Fair CLR 78.3 59.5 53% 80 29.55 0.0
04 20:35 S 15 G 25 10.00 Fair CLR 79.3 59.4 51% 80 29.55 0.0
04 20:15 S 15 G 26 10.00 Fair CLR 80.6 59 48% 81 29.55 0.0
04 19:55 S 24 G 30 10.00 Fair and Breezy CLR 80.6 58.6 47% 81 29.55 0.0
04 19:35 S 21 G 28 10.00 Fair and Breezy CLR 81.3 58.6 46% 82 29.55 0.0
04 19:15 S 21 G 28 10.00 Fair and Breezy CLR 82.2 58.5 44% 82 29.55 0.0
04 18:55 SE 18 G 28 10.00 Fair CLR 83.7 57.2 87.4 79.7 41% 83 29.55 0.0
04 18:35 S 16 G 28 10.00 Fair CLR 84.9 55.9 37% 84 29.56 0.0
04 18:15 SE 20 G 28 10.00 Fair CLR 85.1 55.2 36% 84 29.57 0.0
04 17:55 S 15 G 25 10.00 Fair CLR 86.2 51.8 31% 84 29.57 0.0
Date Time (cdt) Wind (mph) Vis. (mi.) Weather Sky Cond. Air Dwpt Max. Min. Relative Humidity Wind Chill (°F) Heat Index (°F) altimeter (in) sea level (mb) 1 hr 3 hr 6 hr
6 hour
Temperature (ºF) Pressure Precipitation (in)